sensor_id;sensor_type;location;lat;lon;timestamp;P1;P2;P0
55518;PMS5003;41724;51.176;-0.708;2023-04-09T00:00:07;12;11;
55518;PMS5003;41724;51.176;-0.708;2023-04-09T00:02:35;12;11;
55518;PMS5003;41724;51.176;-0.708;2023-04-09T00:05:02;11;11;
55518;PMS5003;41724;51.176;-0.708;2023-04-09T00:07:29;15;15;
55518;PMS5003;41724;51.176;-0.708;2023-04-09T00:09:56;14;14;
55518;PMS5003;41724;51.176;-0.708;2023-04-09T00:12:23;14;14;
55518;PMS5003;41724;51.176;-0.708;2023-04-09T00:14:51;16;15;
55518;PMS5003;41724;51.176;-0.708;2023-04-09T00:17:18;17;16;
55518;PMS5003;41724;51.176;-0.708;2023-04-09T00:19:45;12;10;
55518;PMS5003;41724;51.176;-0.708;2023-04-09T00:22:12;14;14;
55518;PMS5003;41724;51.176;-0.708;2023-04-09T00:24:40;15;15;
55518;PMS5003;41724;51.176;-0.708;2023-04-09T00:27:07;14;13;
55518;PMS5003;41724;51.176;-0.708;2023-04-09T00:29:34;16;15;
55518;PMS5003;41724;51.176;-0.708;2023-04-09T00:32:01;17;14;
55518;PMS5003;41724;51.176;-0.708;2023-04-09T00:34:29;11;11;
55518;PMS5003;41724;51.176;-0.708;2023-04-09T00:36:56;11;11;
55518;PMS5003;41724;51.176;-0.708;2023-04-09T00:39:23;16;14;
55518;PMS5003;41724;51.176;-0.708;2023-04-09T00:41:54;24;23;
55518;PMS5003;41724;51.176;-0.708;2023-04-09T00:44:21;16;16;
55518;PMS5003;41724;51.176;-0.708;2023-04-09T00:46:48;20;19;
55518;PMS5003;41724;51.176;-0.708;2023-04-09T00:49:15;25;24;
55518;PMS5003;41724;51.176;-0.708;2023-04-09T00:51:43;20;20;
55518;PMS5003;41724;51.176;-0.708;2023-04-09T00:54:12;21;21;
55518;PMS5003;41724;51.176;-0.708;2023-04-09T00:56:39;23;23;
55518;PMS5003;41724;51.176;-0.708;2023-04-09T00:59:07;17;16;
55518;PMS5003;41724;51.176;-0.708;2023-04-09T01:01:34;16;15;
55518;PMS5003;41724;51.176;-0.708;2023-04-09T01:04:02;17;17;
55518;PMS5003;41724;51.176;-0.708;2023-04-09T01:06:31;10;10;
55518;PMS5003;41724;51.176;-0.708;2023-04-09T01:09:05;13;11;
55518;PMS5003;41724;51.176;-0.708;2023-04-09T01:11:41;14;14;
55518;PMS5003;41724;51.176;-0.708;2023-04-09T01:14:19;14;11;
55518;PMS5003;41724;51.176;-0.708;2023-04-09T01:16:51;13;11;
55518;PMS5003;41724;51.176;-0.708;2023-04-09T01:19:28;14;14;
55518;PMS5003;41724;51.176;-0.708;2023-04-09T01:22:04;12;12;
55518;PMS5003;41724;51.176;-0.708;2023-04-09T01:24:54;16;14;
55518;PMS5003;41724;51.176;-0.708;2023-04-09T01:27:29;15;14;
55518;PMS5003;41724;51.176;-0.708;2023-04-09T01:30:06;11;11;
55518;PMS5003;41724;51.176;-0.708;2023-04-09T01:32:35;14;13;
55518;PMS5003;41724;51.176;-0.708;2023-04-09T01:35:05;13;13;
55518;PMS5003;41724;51.176;-0.708;2023-04-09T01:37:34;13;13;
55518;PMS5003;41724;51.176;-0.708;2023-04-09T01:40:03;11;11;
55518;PMS5003;41724;51.176;-0.708;2023-04-09T01:42:31;15;13;
55518;PMS5003;41724;51.176;-0.708;2023-04-09T01:44:59;13;11;
55518;PMS5003;41724;51.176;-0.708;2023-04-09T01:47:26;13;13;
55518;PMS5003;41724;51.176;-0.708;2023-04-09T01:49:55;15;14;
55518;PMS5003;41724;51.176;-0.708;2023-04-09T01:52:22;14;13;
55518;PMS5003;41724;51.176;-0.708;2023-04-09T01:54:50;14;14;
55518;PMS5003;41724;51.176;-0.708;2023-04-09T01:57:17;14;14;
55518;PMS5003;41724;51.176;-0.708;2023-04-09T01:59:44;12;10;
55518;PMS5003;41724;51.176;-0.708;2023-04-09T02:02:13;13;12;
55518;PMS5003;41724;51.176;-0.708;2023-04-09T02:04:46;21;20;
55518;PMS5003;41724;51.176;-0.708;2023-04-09T02:07:17;17;17;
55518;PMS5003;41724;51.176;-0.708;2023-04-09T02:09:50;15;15;
55518;PMS5003;41724;51.176;-0.708;2023-04-09T02:12:19;25;24;
55518;PMS5003;41724;51.176;-0.708;2023-04-09T02:14:50;16;16;
55518;PMS5003;41724;51.176;-0.708;2023-04-09T02:17:18;17;16;
55518;PMS5003;41724;51.176;-0.708;2023-04-09T02:19:46;16;15;
55518;PMS5003;41724;51.176;-0.708;2023-04-09T02:22:14;18;17;
55518;PMS5003;41724;51.176;-0.708;2023-04-09T02:24:42;17;17;
55518;PMS5003;41724;51.176;-0.708;2023-04-09T02:27:09;18;17;
55518;PMS5003;41724;51.176;-0.708;2023-04-09T02:29:37;14;14;
55518;PMS5003;41724;51.176;-0.708;2023-04-09T02:32:04;16;16;
55518;PMS5003;41724;51.176;-0.708;2023-04-09T02:34:32;18;16;
55518;PMS5003;41724;51.176;-0.708;2023-04-09T02:36:59;17;16;
55518;PMS5003;41724;51.176;-0.708;2023-04-09T02:39:25;16;14;
55518;PMS5003;41724;51.176;-0.708;2023-04-09T02:41:53;17;16;
55518;PMS5003;41724;51.176;-0.708;2023-04-09T02:44:20;16;15;
55518;PMS5003;41724;51.176;-0.708;2023-04-09T02:46:49;21;18;
55518;PMS5003;41724;51.176;-0.708;2023-04-09T02:49:16;16;16;
55518;PMS5003;41724;51.176;-0.708;2023-04-09T02:51:43;15;14;
55518;PMS5003;41724;51.176;-0.708;2023-04-09T02:54:11;23;23;
55518;PMS5003;41724;51.176;-0.708;2023-04-09T02:56:38;19;19;
55518;PMS5003;41724;51.176;-0.708;2023-04-09T02:59:05;16;16;
55518;PMS5003;41724;51.176;-0.708;2023-04-09T03:01:32;18;16;
55518;PMS5003;41724;51.176;-0.708;2023-04-09T03:03:59;18;18;
55518;PMS5003;41724;51.176;-0.708;2023-04-09T03:06:26;18;17;
55518;PMS5003;41724;51.176;-0.708;2023-04-09T03:08:54;21;20;
55518;PMS5003;41724;51.176;-0.708;2023-04-09T03:11:21;19;18;
55518;PMS5003;41724;51.176;-0.708;2023-04-09T03:13:48;21;21;
55518;PMS5003;41724;51.176;-0.708;2023-04-09T03:16:15;20;19;
55518;PMS5003;41724;51.176;-0.708;2023-04-09T03:18:42;23;22;
55518;PMS5003;41724;51.176;-0.708;2023-04-09T03:21:09;20;18;
55518;PMS5003;41724;51.176;-0.708;2023-04-09T03:23:36;19;19;
55518;PMS5003;41724;51.176;-0.708;2023-04-09T03:26:04;18;17;
55518;PMS5003;41724;51.176;-0.708;2023-04-09T03:28:31;17;17;
55518;PMS5003;41724;51.176;-0.708;2023-04-09T03:30:58;18;17;
55518;PMS5003;41724;51.176;-0.708;2023-04-09T03:33:26;18;17;
55518;PMS5003;41724;51.176;-0.708;2023-04-09T03:35:53;22;21;
55518;PMS5003;41724;51.176;-0.708;2023-04-09T03:38:20;13;12;
55518;PMS5003;41724;51.176;-0.708;2023-04-09T03:40:47;14;13;
55518;PMS5003;41724;51.176;-0.708;2023-04-09T03:43:14;21;21;
55518;PMS5003;41724;51.176;-0.708;2023-04-09T03:45:41;21;19;
55518;PMS5003;41724;51.176;-0.708;2023-04-09T03:48:07;28;25;
55518;PMS5003;41724;51.176;-0.708;2023-04-09T03:50:36;21;21;
55518;PMS5003;41724;51.176;-0.708;2023-04-09T03:53:04;65;57;
55518;PMS5003;41724;51.176;-0.708;2023-04-09T03:55:31;52;49;
55518;PMS5003;41724;51.176;-0.708;2023-04-09T03:57:58;44;42;
55518;PMS5003;41724;51.176;-0.708;2023-04-09T04:00:25;58;54;
55518;PMS5003;41724;51.176;-0.708;2023-04-09T04:02:52;56;53;
55518;PMS5003;41724;51.176;-0.708;2023-04-09T04:05:21;47;45;
55518;PMS5003;41724;51.176;-0.708;2023-04-09T04:07:48;31;29;
55518;PMS5003;41724;51.176;-0.708;2023-04-09T04:10:15;30;29;
55518;PMS5003;41724;51.176;-0.708;2023-04-09T04:12:43;28;26;
55518;PMS5003;41724;51.176;-0.708;2023-04-09T04:15:10;27;26;
55518;PMS5003;41724;51.176;-0.708;2023-04-09T04:17:37;31;29;
55518;PMS5003;41724;51.176;-0.708;2023-04-09T04:20:05;24;24;
55518;PMS5003;41724;51.176;-0.708;2023-04-09T04:22:32;29;27;
55518;PMS5003;41724;51.176;-0.708;2023-04-09T04:25:00;29;29;
55518;PMS5003;41724;51.176;-0.708;2023-04-09T04:27:27;27;24;
55518;PMS5003;41724;51.176;-0.708;2023-04-09T04:29:55;30;28;
55518;PMS5003;41724;51.176;-0.708;2023-04-09T04:32:23;26;26;
55518;PMS5003;41724;51.176;-0.708;2023-04-09T04:34:50;26;25;
55518;PMS5003;41724;51.176;-0.708;2023-04-09T04:37:17;27;26;
55518;PMS5003;41724;51.176;-0.708;2023-04-09T04:39:44;30;27;
55518;PMS5003;41724;51.176;-0.708;2023-04-09T04:42:12;30;30;
55518;PMS5003;41724;51.176;-0.708;2023-04-09T04:44:39;45;41;
55518;PMS5003;41724;51.176;-0.708;2023-04-09T04:47:06;40;38;
55518;PMS5003;41724;51.176;-0.708;2023-04-09T04:49:33;48;45;
55518;PMS5003;41724;51.176;-0.708;2023-04-09T04:51:59;35;34;
55518;PMS5003;41724;51.176;-0.708;2023-04-09T04:54:26;38;38;
55518;PMS5003;41724;51.176;-0.708;2023-04-09T04:56:53;36;34;
55518;PMS5003;41724;51.176;-0.708;2023-04-09T04:59:20;40;37;
55518;PMS5003;41724;51.176;-0.708;2023-04-09T05:01:47;40;36;
55518;PMS5003;41724;51.176;-0.708;2023-04-09T05:04:15;37;36;
55518;PMS5003;41724;51.176;-0.708;2023-04-09T05:06:42;37;37;
55518;PMS5003;41724;51.176;-0.708;2023-04-09T05:09:09;41;40;
55518;PMS5003;41724;51.176;-0.708;2023-04-09T05:11:36;34;34;
55518;PMS5003;41724;51.176;-0.708;2023-04-09T05:14:03;39;38;
55518;PMS5003;41724;51.176;-0.708;2023-04-09T05:16:31;42;41;
55518;PMS5003;41724;51.176;-0.708;2023-04-09T05:18:58;51;48;
55518;PMS5003;41724;51.176;-0.708;2023-04-09T05:21:25;45;42;
55518;PMS5003;41724;51.176;-0.708;2023-04-09T05:23:53;34;33;
55518;PMS5003;41724;51.176;-0.708;2023-04-09T05:26:20;40;39;
55518;PMS5003;41724;51.176;-0.708;2023-04-09T05:28:47;39;38;
55518;PMS5003;41724;51.176;-0.708;2023-04-09T05:31:14;44;40;
55518;PMS5003;41724;51.176;-0.708;2023-04-09T05:33:41;43;39;
55518;PMS5003;41724;51.176;-0.708;2023-04-09T05:36:13;48;45;
55518;PMS5003;41724;51.176;-0.708;2023-04-09T05:38:40;41;40;
55518;PMS5003;41724;51.176;-0.708;2023-04-09T05:41:08;45;44;
55518;PMS5003;41724;51.176;-0.708;2023-04-09T05:43:35;42;40;
55518;PMS5003;41724;51.176;-0.708;2023-04-09T05:46:02;39;36;
55518;PMS5003;41724;51.176;-0.708;2023-04-09T05:48:29;43;40;
55518;PMS5003;41724;51.176;-0.708;2023-04-09T05:50:56;40;38;
55518;PMS5003;41724;51.176;-0.708;2023-04-09T05:53:23;46;44;
55518;PMS5003;41724;51.176;-0.708;2023-04-09T05:55:51;46;45;
55518;PMS5003;41724;51.176;-0.708;2023-04-09T05:58:18;47;46;
55518;PMS5003;41724;51.176;-0.708;2023-04-09T06:00:46;43;40;
55518;PMS5003;41724;51.176;-0.708;2023-04-09T10:20:45;44;43;
55518;PMS5003;41724;51.176;-0.708;2023-04-09T10:23:20;48;41;
55518;PMS5003;41724;51.176;-0.708;2023-04-09T10:26:06;48;45;
55518;PMS5003;41724;51.176;-0.708;2023-04-09T10:28:33;42;40;
55518;PMS5003;41724;51.176;-0.708;2023-04-09T10:31:03;41;40;
55518;PMS5003;41724;51.176;-0.708;2023-04-09T10:33:31;45;44;
55518;PMS5003;41724;51.176;-0.708;2023-04-09T10:35:59;34;34;
55518;PMS5003;41724;51.176;-0.708;2023-04-09T10:38:36;43;41;
55518;PMS5003;41724;51.176;-0.708;2023-04-09T10:41:06;35;35;
55518;PMS5003;41724;51.176;-0.708;2023-04-09T10:43:39;47;45;
55518;PMS5003;41724;51.176;-0.708;2023-04-09T10:46:23;36;35;
55518;PMS5003;41724;51.176;-0.708;2023-04-09T10:49:08;41;40;
55518;PMS5003;41724;51.176;-0.708;2023-04-09T10:51:37;40;39;
55518;PMS5003;41724;51.176;-0.708;2023-04-09T10:54:04;35;34;
55518;PMS5003;41724;51.176;-0.708;2023-04-09T10:56:32;39;38;
55518;PMS5003;41724;51.176;-0.708;2023-04-09T10:58:59;39;35;
55518;PMS5003;41724;51.176;-0.708;2023-04-09T11:01:26;35;32;
55518;PMS5003;41724;51.176;-0.708;2023-04-09T11:04:12;36;35;
55518;PMS5003;41724;51.176;-0.708;2023-04-09T11:06:44;34;32;
55518;PMS5003;41724;51.176;-0.708;2023-04-09T11:09:13;31;31;
55518;PMS5003;41724;51.176;-0.708;2023-04-09T11:11:51;33;32;
55518;PMS5003;41724;51.176;-0.708;2023-04-09T11:14:19;29;28;
55518;PMS5003;41724;51.176;-0.708;2023-04-09T11:16:46;29;28;
55518;PMS5003;41724;51.176;-0.708;2023-04-09T11:19:13;30;29;
55518;PMS5003;41724;51.176;-0.708;2023-04-09T11:21:41;27;26;
55518;PMS5003;41724;51.176;-0.708;2023-04-09T11:24:08;37;35;
55518;PMS5003;41724;51.176;-0.708;2023-04-09T11:26:39;32;32;
55518;PMS5003;41724;51.176;-0.708;2023-04-09T11:29:06;23;23;
55518;PMS5003;41724;51.176;-0.708;2023-04-09T11:31:34;29;29;
55518;PMS5003;41724;51.176;-0.708;2023-04-09T11:34:02;28;27;
55518;PMS5003;41724;51.176;-0.708;2023-04-09T11:36:29;31;30;
55518;PMS5003;41724;51.176;-0.708;2023-04-09T11:38:59;23;23;
55518;PMS5003;41724;51.176;-0.708;2023-04-09T11:41:33;23;23;
55518;PMS5003;41724;51.176;-0.708;2023-04-09T11:44:02;23;22;
55518;PMS5003;41724;51.176;-0.708;2023-04-09T11:46:29;28;28;
55518;PMS5003;41724;51.176;-0.708;2023-04-09T11:48:57;23;22;
55518;PMS5003;41724;51.176;-0.708;2023-04-09T11:51:25;26;25;
55518;PMS5003;41724;51.176;-0.708;2023-04-09T11:53:52;20;20;
55518;PMS5003;41724;51.176;-0.708;2023-04-09T11:56:19;26;25;
55518;PMS5003;41724;51.176;-0.708;2023-04-09T11:58:47;18;17;
55518;PMS5003;41724;51.176;-0.708;2023-04-09T12:01:14;23;21;
55518;PMS5003;41724;51.176;-0.708;2023-04-09T12:03:42;23;22;
55518;PMS5003;41724;51.176;-0.708;2023-04-09T12:06:09;23;20;
55518;PMS5003;41724;51.176;-0.708;2023-04-09T12:08:37;20;19;
55518;PMS5003;41724;51.176;-0.708;2023-04-09T12:11:08;20;19;
55518;PMS5003;41724;51.176;-0.708;2023-04-09T12:13:36;21;20;
55518;PMS5003;41724;51.176;-0.708;2023-04-09T12:16:03;19;17;
55518;PMS5003;41724;51.176;-0.708;2023-04-09T12:18:31;14;14;
55518;PMS5003;41724;51.176;-0.708;2023-04-09T12:21:01;17;17;
55518;PMS5003;41724;51.176;-0.708;2023-04-09T12:23:29;21;21;
55518;PMS5003;41724;51.176;-0.708;2023-04-09T12:25:56;16;16;
55518;PMS5003;41724;51.176;-0.708;2023-04-09T12:28:23;15;14;
55518;PMS5003;41724;51.176;-0.708;2023-04-09T12:30:50;21;20;
55518;PMS5003;41724;51.176;-0.708;2023-04-09T12:33:17;20;20;
55518;PMS5003;41724;51.176;-0.708;2023-04-09T12:35:45;21;20;
55518;PMS5003;41724;51.176;-0.708;2023-04-09T12:38:12;23;21;
55518;PMS5003;41724;51.176;-0.708;2023-04-09T12:40:39;24;21;
55518;PMS5003;41724;51.176;-0.708;2023-04-09T12:43:05;22;22;
55518;PMS5003;41724;51.176;-0.708;2023-04-09T12:45:32;22;21;
55518;PMS5003;41724;51.176;-0.708;2023-04-09T12:47:59;16;16;
55518;PMS5003;41724;51.176;-0.708;2023-04-09T12:50:26;18;17;
55518;PMS5003;41724;51.176;-0.708;2023-04-09T12:52:53;17;16;
55518;PMS5003;41724;51.176;-0.708;2023-04-09T12:55:20;17;17;
55518;PMS5003;41724;51.176;-0.708;2023-04-09T12:57:48;18;18;
55518;PMS5003;41724;51.176;-0.708;2023-04-09T13:00:16;13;13;
55518;PMS5003;41724;51.176;-0.708;2023-04-09T13:02:43;17;17;
55518;PMS5003;41724;51.176;-0.708;2023-04-09T13:05:10;17;16;
55518;PMS5003;41724;51.176;-0.708;2023-04-09T13:07:37;14;13;
55518;PMS5003;41724;51.176;-0.708;2023-04-09T13:10:05;17;16;
55518;PMS5003;41724;51.176;-0.708;2023-04-09T13:12:32;21;20;
55518;PMS5003;41724;51.176;-0.708;2023-04-09T13:14:59;18;16;
55518;PMS5003;41724;51.176;-0.708;2023-04-09T13:17:26;18;17;
55518;PMS5003;41724;51.176;-0.708;2023-04-09T13:19:53;18;18;
55518;PMS5003;41724;51.176;-0.708;2023-04-09T13:22:20;14;14;
55518;PMS5003;41724;51.176;-0.708;2023-04-09T13:24:48;17;15;
55518;PMS5003;41724;51.176;-0.708;2023-04-09T13:27:15;17;17;
55518;PMS5003;41724;51.176;-0.708;2023-04-09T13:29:43;14;14;
55518;PMS5003;41724;51.176;-0.708;2023-04-09T13:32:10;15;15;
55518;PMS5003;41724;51.176;-0.708;2023-04-09T13:34:38;13;13;
55518;PMS5003;41724;51.176;-0.708;2023-04-09T13:37:05;18;18;
55518;PMS5003;41724;51.176;-0.708;2023-04-09T13:39:32;17;17;
55518;PMS5003;41724;51.176;-0.708;2023-04-09T13:42:00;14;14;
55518;PMS5003;41724;51.176;-0.708;2023-04-09T13:44:27;17;16;
55518;PMS5003;41724;51.176;-0.708;2023-04-09T13:46:54;14;14;
55518;PMS5003;41724;51.176;-0.708;2023-04-09T13:49:21;11;10;
55518;PMS5003;41724;51.176;-0.708;2023-04-09T13:51:48;12;12;
55518;PMS5003;41724;51.176;-0.708;2023-04-09T13:54:15;12;11;
55518;PMS5003;41724;51.176;-0.708;2023-04-09T13:56:42;14;12;
55518;PMS5003;41724;51.176;-0.708;2023-04-09T13:59:10;9;9;
55518;PMS5003;41724;51.176;-0.708;2023-04-09T14:01:37;10;10;
55518;PMS5003;41724;51.176;-0.708;2023-04-09T14:04:05;9;9;
55518;PMS5003;41724;51.176;-0.708;2023-04-09T14:06:32;8;8;
55518;PMS5003;41724;51.176;-0.708;2023-04-09T14:09:00;11;11;
55518;PMS5003;41724;51.176;-0.708;2023-04-09T14:11:27;11;11;
55518;PMS5003;41724;51.176;-0.708;2023-04-09T14:13:54;11;10;
55518;PMS5003;41724;51.176;-0.708;2023-04-09T14:16:21;10;9;
55518;PMS5003;41724;51.176;-0.708;2023-04-09T14:18:48;9;9;
55518;PMS5003;41724;51.176;-0.708;2023-04-09T14:21:15;10;9;
55518;PMS5003;41724;51.176;-0.708;2023-04-09T14:23:41;8;8;
55518;PMS5003;41724;51.176;-0.708;2023-04-09T14:26:08;7;7;
55518;PMS5003;41724;51.176;-0.708;2023-04-09T14:28:35;8;8;
55518;PMS5003;41724;51.176;-0.708;2023-04-09T14:31:03;8;8;
55518;PMS5003;41724;51.176;-0.708;2023-04-09T14:33:30;9;9;
55518;PMS5003;41724;51.176;-0.708;2023-04-09T14:35:57;8;8;
55518;PMS5003;41724;51.176;-0.708;2023-04-09T14:38:24;9;9;
55518;PMS5003;41724;51.176;-0.708;2023-04-09T14:40:52;8;8;
55518;PMS5003;41724;51.176;-0.708;2023-04-09T14:43:18;8;8;
55518;PMS5003;41724;51.176;-0.708;2023-04-09T14:45:45;10;9;
55518;PMS5003;41724;51.176;-0.708;2023-04-09T14:48:12;10;9;
55518;PMS5003;41724;51.176;-0.708;2023-04-09T14:50:38;12;12;
55518;PMS5003;41724;51.176;-0.708;2023-04-09T14:53:06;9;9;
55518;PMS5003;41724;51.176;-0.708;2023-04-09T14:55:33;11;11;
55518;PMS5003;41724;51.176;-0.708;2023-04-09T14:57:59;10;10;
55518;PMS5003;41724;51.176;-0.708;2023-04-09T15:00:26;12;11;
55518;PMS5003;41724;51.176;-0.708;2023-04-09T15:02:53;11;11;
55518;PMS5003;41724;51.176;-0.708;2023-04-09T15:05:19;10;10;
55518;PMS5003;41724;51.176;-0.708;2023-04-09T15:07:47;11;10;
55518;PMS5003;41724;51.176;-0.708;2023-04-09T15:10:14;11;10;
55518;PMS5003;41724;51.176;-0.708;2023-04-09T15:12:40;9;9;
55518;PMS5003;41724;51.176;-0.708;2023-04-09T15:15:07;9;8;
55518;PMS5003;41724;51.176;-0.708;2023-04-09T15:17:35;11;11;
55518;PMS5003;41724;51.176;-0.708;2023-04-09T15:20:01;12;12;
55518;PMS5003;41724;51.176;-0.708;2023-04-09T15:22:29;11;10;
55518;PMS5003;41724;51.176;-0.708;2023-04-09T15:24:56;10;10;
55518;PMS5003;41724;51.176;-0.708;2023-04-09T15:27:22;10;10;
55518;PMS5003;41724;51.176;-0.708;2023-04-09T15:29:49;13;13;
55518;PMS5003;41724;51.176;-0.708;2023-04-09T15:32:16;10;10;
55518;PMS5003;41724;51.176;-0.708;2023-04-09T15:34:43;10;10;
55518;PMS5003;41724;51.176;-0.708;2023-04-09T15:37:11;12;12;
55518;PMS5003;41724;51.176;-0.708;2023-04-09T15:39:38;11;10;
55518;PMS5003;41724;51.176;-0.708;2023-04-09T15:42:04;8;7;
55518;PMS5003;41724;51.176;-0.708;2023-04-09T15:44:31;13;12;
55518;PMS5003;41724;51.176;-0.708;2023-04-09T15:46:59;13;12;
55518;PMS5003;41724;51.176;-0.708;2023-04-09T15:49:25;9;9;
55518;PMS5003;41724;51.176;-0.708;2023-04-09T15:51:52;13;11;
55518;PMS5003;41724;51.176;-0.708;2023-04-09T15:54:19;11;11;
55518;PMS5003;41724;51.176;-0.708;2023-04-09T15:56:46;8;8;
55518;PMS5003;41724;51.176;-0.708;2023-04-09T15:59:13;13;13;
55518;PMS5003;41724;51.176;-0.708;2023-04-09T16:01:40;9;9;
55518;PMS5003;41724;51.176;-0.708;2023-04-09T16:04:07;13;13;
55518;PMS5003;41724;51.176;-0.708;2023-04-09T16:06:34;9;9;
55518;PMS5003;41724;51.176;-0.708;2023-04-09T16:09:03;12;12;
55518;PMS5003;41724;51.176;-0.708;2023-04-09T16:11:30;14;13;
55518;PMS5003;41724;51.176;-0.708;2023-04-09T16:13:57;15;15;
55518;PMS5003;41724;51.176;-0.708;2023-04-09T16:16:24;10;10;
55518;PMS5003;41724;51.176;-0.708;2023-04-09T16:18:51;8;8;
55518;PMS5003;41724;51.176;-0.708;2023-04-09T16:21:18;9;9;
55518;PMS5003;41724;51.176;-0.708;2023-04-09T16:23:45;9;9;
55518;PMS5003;41724;51.176;-0.708;2023-04-09T16:26:11;10;10;
55518;PMS5003;41724;51.176;-0.708;2023-04-09T16:28:38;9;9;
55518;PMS5003;41724;51.176;-0.708;2023-04-09T16:31:05;8;8;
55518;PMS5003;41724;51.176;-0.708;2023-04-09T16:33:32;12;12;
55518;PMS5003;41724;51.176;-0.708;2023-04-09T16:35:59;12;11;
55518;PMS5003;41724;51.176;-0.708;2023-04-09T16:38:26;9;9;
55518;PMS5003;41724;51.176;-0.708;2023-04-09T16:40:53;12;12;
55518;PMS5003;41724;51.176;-0.708;2023-04-09T16:43:21;10;10;
55518;PMS5003;41724;51.176;-0.708;2023-04-09T16:45:48;11;10;
55518;PMS5003;41724;51.176;-0.708;2023-04-09T16:48:15;12;11;
55518;PMS5003;41724;51.176;-0.708;2023-04-09T16:50:42;14;14;
55518;PMS5003;41724;51.176;-0.708;2023-04-09T16:53:08;15;15;
55518;PMS5003;41724;51.176;-0.708;2023-04-09T16:55:35;15;15;
55518;PMS5003;41724;51.176;-0.708;2023-04-09T16:58:02;9;9;
55518;PMS5003;41724;51.176;-0.708;2023-04-09T17:00:28;13;12;
55518;PMS5003;41724;51.176;-0.708;2023-04-09T17:02:55;10;10;
55518;PMS5003;41724;51.176;-0.708;2023-04-09T17:05:23;12;11;
55518;PMS5003;41724;51.176;-0.708;2023-04-09T17:07:50;13;13;
55518;PMS5003;41724;51.176;-0.708;2023-04-09T17:10:17;13;12;
55518;PMS5003;41724;51.176;-0.708;2023-04-09T17:12:44;13;13;
55518;PMS5003;41724;51.176;-0.708;2023-04-09T17:15:11;12;12;
55518;PMS5003;41724;51.176;-0.708;2023-04-09T17:17:38;9;9;
55518;PMS5003;41724;51.176;-0.708;2023-04-09T17:20:05;14;13;
55518;PMS5003;41724;51.176;-0.708;2023-04-09T17:22:33;10;9;
55518;PMS5003;41724;51.176;-0.708;2023-04-09T17:25:00;11;11;
55518;PMS5003;41724;51.176;-0.708;2023-04-09T17:27:32;8;7;
55518;PMS5003;41724;51.176;-0.708;2023-04-09T17:30:00;12;11;
55518;PMS5003;41724;51.176;-0.708;2023-04-09T17:32:27;12;12;
55518;PMS5003;41724;51.176;-0.708;2023-04-09T17:34:54;10;10;
55518;PMS5003;41724;51.176;-0.708;2023-04-09T17:37:23;12;12;
55518;PMS5003;41724;51.176;-0.708;2023-04-09T17:39:51;13;13;
55518;PMS5003;41724;51.176;-0.708;2023-04-09T17:42:18;10;10;
55518;PMS5003;41724;51.176;-0.708;2023-04-09T17:44:45;14;14;
55518;PMS5003;41724;51.176;-0.708;2023-04-09T17:47:13;11;11;
55518;PMS5003;41724;51.176;-0.708;2023-04-09T17:49:40;8;8;
55518;PMS5003;41724;51.176;-0.708;2023-04-09T17:52:06;11;11;
55518;PMS5003;41724;51.176;-0.708;2023-04-09T17:54:34;11;11;
55518;PMS5003;41724;51.176;-0.708;2023-04-09T17:57:01;9;8;
55518;PMS5003;41724;51.176;-0.708;2023-04-09T17:59:28;11;10;
55518;PMS5003;41724;51.176;-0.708;2023-04-09T18:01:55;17;14;
55518;PMS5003;41724;51.176;-0.708;2023-04-09T18:04:22;11;11;
55518;PMS5003;41724;51.176;-0.708;2023-04-09T18:06:50;8;8;
55518;PMS5003;41724;51.176;-0.708;2023-04-09T18:09:17;12;11;
55518;PMS5003;41724;51.176;-0.708;2023-04-09T18:11:44;11;11;
55518;PMS5003;41724;51.176;-0.708;2023-04-09T18:14:11;14;12;
55518;PMS5003;41724;51.176;-0.708;2023-04-09T18:16:39;11;10;
55518;PMS5003;41724;51.176;-0.708;2023-04-09T18:19:06;14;13;
55518;PMS5003;41724;51.176;-0.708;2023-04-09T18:21:33;12;12;
55518;PMS5003;41724;51.176;-0.708;2023-04-09T18:24:01;12;12;
55518;PMS5003;41724;51.176;-0.708;2023-04-09T18:26:29;14;13;
55518;PMS5003;41724;51.176;-0.708;2023-04-09T18:28:56;11;11;
55518;PMS5003;41724;51.176;-0.708;2023-04-09T18:31:23;14;13;
55518;PMS5003;41724;51.176;-0.708;2023-04-09T18:33:50;12;9;
55518;PMS5003;41724;51.176;-0.708;2023-04-09T18:36:17;13;13;
55518;PMS5003;41724;51.176;-0.708;2023-04-09T18:38:44;13;13;
55518;PMS5003;41724;51.176;-0.708;2023-04-09T18:41:11;14;12;
55518;PMS5003;41724;51.176;-0.708;2023-04-09T18:43:37;18;16;
55518;PMS5003;41724;51.176;-0.708;2023-04-09T18:46:05;15;15;
55518;PMS5003;41724;51.176;-0.708;2023-04-09T18:48:31;14;14;
55518;PMS5003;41724;51.176;-0.708;2023-04-09T18:50:58;16;15;
55518;PMS5003;41724;51.176;-0.708;2023-04-09T18:53:25;23;22;
55518;PMS5003;41724;51.176;-0.708;2023-04-09T18:55:52;14;14;
55518;PMS5003;41724;51.176;-0.708;2023-04-09T18:58:19;16;14;
55518;PMS5003;41724;51.176;-0.708;2023-04-09T19:00:46;18;17;
55518;PMS5003;41724;51.176;-0.708;2023-04-09T19:03:13;17;16;
55518;PMS5003;41724;51.176;-0.708;2023-04-09T19:05:40;14;14;
55518;PMS5003;41724;51.176;-0.708;2023-04-09T19:08:07;18;17;
55518;PMS5003;41724;51.176;-0.708;2023-04-09T19:10:34;17;16;
55518;PMS5003;41724;51.176;-0.708;2023-04-09T19:13:02;16;16;
55518;PMS5003;41724;51.176;-0.708;2023-04-09T19:15:29;16;16;
55518;PMS5003;41724;51.176;-0.708;2023-04-09T19:17:55;17;16;
55518;PMS5003;41724;51.176;-0.708;2023-04-09T19:20:23;16;16;
55518;PMS5003;41724;51.176;-0.708;2023-04-09T19:22:50;20;17;
55518;PMS5003;41724;51.176;-0.708;2023-04-09T19:25:18;18;18;
55518;PMS5003;41724;51.176;-0.708;2023-04-09T19:27:46;21;19;
55518;PMS5003;41724;51.176;-0.708;2023-04-09T19:30:13;25;23;
55518;PMS5003;41724;51.176;-0.708;2023-04-09T19:32:40;18;18;
55518;PMS5003;41724;51.176;-0.708;2023-04-09T19:35:07;28;26;
55518;PMS5003;41724;51.176;-0.708;2023-04-09T19:37:34;18;18;
55518;PMS5003;41724;51.176;-0.708;2023-04-09T19:40:01;18;18;
55518;PMS5003;41724;51.176;-0.708;2023-04-09T19:42:27;16;15;
55518;PMS5003;41724;51.176;-0.708;2023-04-09T19:44:55;21;19;
55518;PMS5003;41724;51.176;-0.708;2023-04-09T19:47:22;18;17;
55518;PMS5003;41724;51.176;-0.708;2023-04-09T19:49:49;19;19;
55518;PMS5003;41724;51.176;-0.708;2023-04-09T19:52:17;25;24;
55518;PMS5003;41724;51.176;-0.708;2023-04-09T19:54:44;17;16;
55518;PMS5003;41724;51.176;-0.708;2023-04-09T19:57:11;20;19;
55518;PMS5003;41724;51.176;-0.708;2023-04-09T19:59:38;28;27;
55518;PMS5003;41724;51.176;-0.708;2023-04-09T20:02:06;18;17;
55518;PMS5003;41724;51.176;-0.708;2023-04-09T20:04:33;24;23;
55518;PMS5003;41724;51.176;-0.708;2023-04-09T20:07:00;22;21;
55518;PMS5003;41724;51.176;-0.708;2023-04-09T20:09:28;24;23;
55518;PMS5003;41724;51.176;-0.708;2023-04-09T20:11:54;18;17;
55518;PMS5003;41724;51.176;-0.708;2023-04-09T20:14:21;18;17;
55518;PMS5003;41724;51.176;-0.708;2023-04-09T20:16:48;18;17;
55518;PMS5003;41724;51.176;-0.708;2023-04-09T20:19:16;28;27;
55518;PMS5003;41724;51.176;-0.708;2023-04-09T20:21:43;19;18;
55518;PMS5003;41724;51.176;-0.708;2023-04-09T20:24:09;20;19;